Time;durP1;ratioP1;P1;durP2;ratioP2;P2;SDS_P1;SDS_P2;PMS_P1;PMS_P2;Temp;Humidity;BMP_temperature;BMP_pressure;BME280_temperature;BME280_humidity;BME280_pressure;Samples;Min_cycle;Max_cycle;Signal;HPM_P1;HPM_P2
2022/06/22 00:01:07;;;;;;;3.58;3.17;;;;;;;;;;5049850;28;20230;-17
2022/06/22 00:03:34;;;;;;;5.60;2.97;;;;;;;;;;5038352;28;20233;-17
2022/06/22 00:06:02;;;;;;;5.18;2.58;;;;;;;;;;5047778;28;20234;-17
2022/06/22 00:08:32;;;;;;;3.70;2.33;;;;;;;;;;5052949;28;20226;-17
2022/06/22 00:11:05;;;;;;;5.15;2.35;;;;;;;;;;5055366;28;20230;-17
2022/06/22 00:13:33;;;;;;;6.05;2.95;;;;;;;;;;5055790;28;20705;-17
2022/06/22 00:16:01;;;;;;;10.68;2.72;;;;;;;;;;5055725;28;20234;-17
2022/06/22 00:18:29;;;;;;;10.38;2.78;;;;;;;;;;5056372;28;20288;-17
2022/06/22 00:20:58;;;;;;;9.32;2.58;;;;;;;;;;5055815;28;20588;-17
2022/06/22 00:23:26;;;;;;;8.50;2.10;;;;;;;;;;5056059;28;20242;-17
2022/06/22 00:26:05;;;;;;;8.02;2.50;;;;;;;;;;5056347;28;20226;-17
2022/06/22 00:28:33;;;;;;;6.72;2.08;;;;;;;;;;5056122;28;20299;-17
2022/06/22 00:31:01;;;;;;;4.10;2.33;;;;;;;;;;5055697;28;21068;-17
2022/06/22 00:33:28;;;;;;;6.88;2.30;;;;;;;;;;5053670;28;20273;-17
2022/06/22 00:35:56;;;;;;;4.57;2.03;;;;;;;;;;5052204;28;20306;-17
2022/06/22 00:38:27;;;;;;;6.50;2.30;;;;;;;;;;5052982;28;20236;-17
2022/06/22 00:40:57;;;;;;;6.38;2.08;;;;;;;;;;5052918;28;20226;-17
2022/06/22 00:43:26;;;;;;;3.92;2.38;;;;;;;;;;5060228;28;20236;-17
2022/06/22 00:45:53;;;;;;;4.57;2.40;;;;;;;;;;5046199;28;20234;-17
2022/06/22 00:48:24;;;;;;;14.70;2.00;;;;;;;;;;5047693;28;20230;-17
2022/06/22 00:50:54;;;;;;;6.03;2.30;;;;;;;;;;5052603;28;20248;-17
2022/06/22 00:53:22;;;;;;;4.15;2.15;;;;;;;;;;5052094;28;20237;-17
2022/06/22 00:55:51;;;;;;;4.38;2.05;;;;;;;;;;5052283;28;20741;-17
2022/06/22 00:58:20;;;;;;;3.75;1.90;;;;;;;;;;5052650;28;20226;-17
2022/06/22 01:00:49;;;;;;;4.32;2.22;;;;;;;;;;5052631;28;20237;-17
2022/06/22 01:03:17;;;;;;;3.42;2.20;;;;;;;;;;5052913;28;20743;-17
2022/06/22 01:05:47;;;;;;;3.65;2.03;;;;;;;;;;5051826;28;20240;-17
2022/06/22 01:08:16;;;;;;;5.60;2.17;;;;;;;;;;5052279;28;20232;-17
2022/06/22 01:10:44;;;;;;;2.83;2.00;;;;;;;;;;5050677;28;20246;-17
2022/06/22 01:13:13;;;;;;;3.53;2.28;;;;;;;;;;5050644;28;20999;-17
2022/06/22 01:15:42;;;;;;;4.78;2.10;;;;;;;;;;5055203;28;20226;-17
2022/06/22 01:18:11;;;;;;;4.25;2.22;;;;;;;;;;5050943;28;20325;-17
2022/06/22 01:20:44;;;;;;;8.20;2.28;;;;;;;;;;5050296;28;20237;-17
2022/06/22 01:23:16;;;;;;;3.47;2.15;;;;;;;;;;5060358;28;20268;-17
2022/06/22 01:25:49;;;;;;;5.72;2.03;;;;;;;;;;5052194;28;20230;-17
2022/06/22 01:28:18;;;;;;;2.22;1.63;;;;;;;;;;5052033;28;20248;-17
2022/06/22 01:30:47;;;;;;;2.72;1.85;;;;;;;;;;5052061;28;20238;-17
2022/06/22 01:33:16;;;;;;;3.63;2.10;;;;;;;;;;5051254;28;20313;-17
2022/06/22 01:35:44;;;;;;;4.28;2.20;;;;;;;;;;5052027;28;20222;-17
2022/06/22 01:38:12;;;;;;;4.30;2.28;;;;;;;;;;5051935;28;20246;-17
2022/06/22 01:40:41;;;;;;;4.28;2.28;;;;;;;;;;5052180;28;20238;-17
2022/06/22 01:43:09;;;;;;;4.18;2.10;;;;;;;;;;5051342;28;20264;-17
2022/06/22 01:45:38;;;;;;;2.50;2.20;;;;;;;;;;5050955;28;20229;-17
2022/06/22 01:48:06;;;;;;;4.07;2.13;;;;;;;;;;5051859;28;20230;-16
2022/06/22 01:50:34;;;;;;;3.47;2.13;;;;;;;;;;5051806;28;20953;-17
2022/06/22 01:53:04;;;;;;;2.88;2.00;;;;;;;;;;5051763;28;20261;-17
2022/06/22 01:55:34;;;;;;;3.70;1.88;;;;;;;;;;5050888;28;20248;-16
2022/06/22 01:58:04;;;;;;;3.97;2.00;;;;;;;;;;5051146;28;20256;-17
2022/06/22 02:00:31;;;;;;;3.70;2.10;;;;;;;;;;5051641;28;20341;-17
2022/06/22 02:03:01;;;;;;;3.55;2.22;;;;;;;;;;5051936;28;21218;-17
2022/06/22 02:05:30;;;;;;;3.08;2.15;;;;;;;;;;5050562;28;20697;-17
2022/06/22 02:07:58;;;;;;;3.95;2.05;;;;;;;;;;5051511;28;20226;-17
2022/06/22 02:10:29;;;;;;;4.28;2.40;;;;;;;;;;5050782;28;20968;-17
2022/06/22 02:12:58;;;;;;;3.20;2.00;;;;;;;;;;5051539;28;20234;-17
2022/06/22 02:15:26;;;;;;;5.90;3.70;;;;;;;;;;5051219;28;20976;-17
2022/06/22 02:17:54;;;;;;;9.30;4.60;;;;;;;;;;5050709;28;20265;-17
2022/06/22 02:20:33;;;;;;;9.18;5.10;;;;;;;;;;5051473;28;21027;-17
2022/06/22 02:23:02;;;;;;;7.47;5.82;;;;;;;;;;5087059;22;21191;-13
2022/06/22 02:25:31;;;;;;;10.13;5.63;;;;;;;;;;5076099;28;20225;-15
2022/06/22 02:27:58;;;;;;;10.68;5.68;;;;;;;;;;5073744;28;20231;-13
2022/06/22 02:30:25;;;;;;;8.50;5.47;;;;;;;;;;5086256;28;20249;-13
2022/06/22 02:32:53;;;;;;;7.43;5.25;;;;;;;;;;5070753;28;20221;-13
2022/06/22 02:35:20;;;;;;;8.23;5.60;;;;;;;;;;5075721;28;20232;-15
2022/06/22 02:37:50;;;;;;;8.75;5.78;;;;;;;;;;5090411;28;20232;-13
2022/06/22 02:40:18;;;;;;;9.57;6.47;;;;;;;;;;5069860;28;20221;-15
2022/06/22 02:45:31;;;;;;;9.57;5.90;;;;;;;;;;5085731;28;20681;-15
2022/06/22 02:47:59;;;;;;;8.32;5.82;;;;;;;;;;5077250;28;20229;-15
2022/06/22 02:50:28;;;;;;;10.32;6.40;;;;;;;;;;5076060;28;20237;-15
2022/06/22 02:52:59;;;;;;;8.63;6.65;;;;;;;;;;5091373;28;20235;-15
2022/06/22 02:55:28;;;;;;;7.68;6.30;;;;;;;;;;5077142;28;20609;-15
2022/06/22 02:57:57;;;;;;;9.25;5.85;;;;;;;;;;5081548;28;20811;-15
2022/06/22 03:00:25;;;;;;;10.55;6.53;;;;;;;;;;5087052;28;20229;-15
2022/06/22 03:02:54;;;;;;;9.57;6.85;;;;;;;;;;5090999;28;20225;-15
2022/06/22 03:05:21;;;;;;;10.43;7.30;;;;;;;;;;5091310;28;21051;-15
2022/06/22 03:07:49;;;;;;;10.52;6.57;;;;;;;;;;5084253;28;20240;-15
2022/06/22 03:10:23;;;;;;;8.55;7.18;;;;;;;;;;5091501;28;20238;-15
2022/06/22 03:12:50;;;;;;;13.55;7.72;;;;;;;;;;5080286;28;20953;-15
2022/06/22 03:15:18;;;;;;;11.75;7.68;;;;;;;;;;5080943;28;20231;-15
2022/06/22 03:17:46;;;;;;;10.52;7.53;;;;;;;;;;5087605;28;20728;-15
2022/06/22 03:20:14;;;;;;;11.52;7.07;;;;;;;;;;5091085;28;20235;-15
2022/06/22 03:22:43;;;;;;;8.80;7.57;;;;;;;;;;5086951;28;20249;-15
2022/06/22 03:25:11;;;;;;;11.63;7.70;;;;;;;;;;5090597;28;20233;-15
2022/06/22 03:27:40;;;;;;;10.60;7.10;;;;;;;;;;5091107;28;20936;-15
2022/06/22 03:30:11;;;;;;;14.13;7.72;;;;;;;;;;5090428;28;20683;-15
2022/06/22 03:32:40;;;;;;;10.50;7.50;;;;;;;;;;5068113;28;20236;-15
2022/06/22 03:35:09;;;;;;;10.75;7.40;;;;;;;;;;5078529;28;20227;-15
2022/06/22 03:37:38;;;;;;;9.20;7.20;;;;;;;;;;5091025;28;21316;-15
2022/06/22 03:40:07;;;;;;;8.95;7.28;;;;;;;;;;5090938;28;20228;-15
2022/06/22 03:42:36;;;;;;;10.52;7.30;;;;;;;;;;5091040;28;20961;-15
2022/06/22 03:45:06;;;;;;;9.07;7.20;;;;;;;;;;5077311;28;20347;-15
2022/06/22 03:47:35;;;;;;;11.88;7.18;;;;;;;;;;5080608;28;20236;-15
2022/06/22 03:50:04;;;;;;;10.52;7.28;;;;;;;;;;5075898;28;20225;-15
2022/06/22 03:52:33;;;;;;;11.27;7.63;;;;;;;;;;5091110;28;20962;-15
2022/06/22 03:55:02;;;;;;;10.00;8.40;;;;;;;;;;5082984;28;21013;-15
2022/06/22 03:57:30;;;;;;;10.85;8.35;;;;;;;;;;5080820;28;20233;-15
2022/06/22 03:59:57;;;;;;;9.07;7.90;;;;;;;;;;5083556;28;20296;-15
2022/06/22 04:02:26;;;;;;;10.10;7.90;;;;;;;;;;5089932;28;20225;-15
2022/06/22 04:04:54;;;;;;;9.60;8.00;;;;;;;;;;5090593;28;21059;-15
2022/06/22 04:07:22;;;;;;;11.38;8.15;;;;;;;;;;5089201;28;20237;-15
2022/06/22 04:09:50;;;;;;;10.07;7.57;;;;;;;;;;5092850;28;20225;-15
2022/06/22 04:12:18;;;;;;;11.43;8.98;;;;;;;;;;5094448;28;20247;-15
2022/06/22 04:14:46;;;;;;;13.00;8.55;;;;;;;;;;5093359;28;20232;-15
2022/06/22 04:17:15;;;;;;;11.48;8.98;;;;;;;;;;5082377;28;20248;-15
2022/06/22 04:19:44;;;;;;;11.07;8.20;;;;;;;;;;5093975;28;20239;-14
2022/06/22 04:22:12;;;;;;;11.45;8.05;;;;;;;;;;5076678;28;20268;-15
2022/06/22 04:24:42;;;;;;;11.23;8.27;;;;;;;;;;5065884;28;20237;-15
2022/06/22 04:27:11;;;;;;;11.50;8.48;;;;;;;;;;5093081;28;20233;-15
2022/06/22 04:29:39;;;;;;;11.32;7.95;;;;;;;;;;5092211;28;20982;-15
2022/06/22 04:32:07;;;;;;;15.60;8.82;;;;;;;;;;5088599;28;20237;-15
2022/06/22 04:34:36;;;;;;;11.63;8.50;;;;;;;;;;5079665;28;20442;-15
2022/06/22 04:37:06;;;;;;;11.60;8.40;;;;;;;;;;5074595;28;20237;-15
2022/06/22 04:39:34;;;;;;;9.93;7.50;;;;;;;;;;5072240;28;20234;-15
2022/06/22 04:42:02;;;;;;;12.25;8.25;;;;;;;;;;5073335;28;20933;-15
2022/06/22 04:44:30;;;;;;;12.45;7.80;;;;;;;;;;5073006;28;20234;-15
2022/06/22 04:46:58;;;;;;;8.43;7.57;;;;;;;;;;5072444;28;20233;-15
2022/06/22 04:49:32;;;;;;;10.80;7.97;;;;;;;;;;5072564;28;20236;-15
2022/06/22 04:52:01;;;;;;;12.88;7.95;;;;;;;;;;5086981;28;20245;-15
2022/06/22 04:54:30;;;;;;;10.63;8.18;;;;;;;;;;5083000;28;20239;-15
2022/06/22 04:56:58;;;;;;;14.25;8.45;;;;;;;;;;5093733;28;20225;-15
2022/06/22 04:59:25;;;;;;;12.05;7.90;;;;;;;;;;5093488;28;20239;-15
2022/06/22 05:01:53;;;;;;;11.13;7.53;;;;;;;;;;5078858;28;20735;-15
2022/06/22 05:04:22;;;;;;;11.00;8.20;;;;;;;;;;5092763;28;20267;-15
2022/06/22 05:06:52;;;;;;;12.18;8.32;;;;;;;;;;5093321;28;20314;-15
2022/06/22 05:09:21;;;;;;;11.55;8.27;;;;;;;;;;5059080;28;20775;-15
2022/06/22 05:11:50;;;;;;;10.90;8.20;;;;;;;;;;5076073;28;20226;-15
2022/06/22 05:14:17;;;;;;;10.48;8.85;;;;;;;;;;5062455;28;20235;-15
2022/06/22 05:16:46;;;;;;;11.07;8.45;;;;;;;;;;5083977;28;20667;-15
2022/06/22 05:19:14;;;;;;;11.10;8.20;;;;;;;;;;5093045;28;20228;-15
2022/06/22 05:21:43;;;;;;;11.63;8.02;;;;;;;;;;5092694;28;20721;-15
2022/06/22 05:24:14;;;;;;;7.95;7.20;;;;;;;;;;5092009;28;20232;-15
2022/06/22 05:26:41;;;;;;;9.80;6.85;;;;;;;;;;5093061;28;20708;-15
2022/06/22 05:29:10;;;;;;;12.50;8.50;;;;;;;;;;5092045;28;20225;-15
2022/06/22 05:31:39;;;;;;;9.77;7.65;;;;;;;;;;5088076;28;20249;-15
2022/06/22 05:34:06;;;;;;;9.02;7.38;;;;;;;;;;5078497;28;20257;-15
2022/06/22 05:36:35;;;;;;;9.13;7.57;;;;;;;;;;5065007;28;20255;-15
2022/06/22 05:39:02;;;;;;;11.48;7.50;;;;;;;;;;5066756;28;20700;-15
2022/06/22 05:41:30;;;;;;;9.55;6.72;;;;;;;;;;5091744;28;20243;-15
2022/06/22 05:43:58;;;;;;;8.48;6.97;;;;;;;;;;5092705;28;20228;-15
2022/06/22 05:46:27;;;;;;;8.15;6.80;;;;;;;;;;5082290;28;20233;-15
2022/06/22 05:48:55;;;;;;;10.38;7.00;;;;;;;;;;5086606;28;20252;-15
2022/06/22 05:51:25;;;;;;;8.18;6.95;;;;;;;;;;5084961;28;20240;-15
2022/06/22 05:53:53;;;;;;;10.07;6.25;;;;;;;;;;5091811;28;20232;-15
2022/06/22 05:56:29;;;;;;;7.93;6.20;;;;;;;;;;5070299;28;20249;-15
2022/06/22 05:58:58;;;;;;;8.07;5.40;;;;;;;;;;5089470;28;20239;-15
2022/06/22 06:01:27;;;;;;;7.35;6.22;;;;;;;;;;5092583;28;20743;-15
2022/06/22 06:03:58;;;;;;;10.00;6.28;;;;;;;;;;5068647;28;20225;-15
2022/06/22 06:06:27;;;;;;;8.10;5.38;;;;;;;;;;5089152;28;20451;-15
2022/06/22 06:08:55;;;;;;;9.77;5.53;;;;;;;;;;5088779;28;20236;-15
2022/06/22 06:11:23;;;;;;;7.15;5.38;;;;;;;;;;5092033;28;20240;-15
2022/06/22 06:13:51;;;;;;;8.20;4.07;;;;;;;;;;5092309;28;20233;-15
2022/06/22 06:16:19;;;;;;;5.47;4.07;;;;;;;;;;5089079;28;20239;-15
2022/06/22 06:18:48;;;;;;;6.88;3.90;;;;;;;;;;5077141;28;21117;-15
2022/06/22 06:21:16;;;;;;;8.65;3.70;;;;;;;;;;5063618;28;20267;-15
2022/06/22 06:23:44;;;;;;;5.78;3.88;;;;;;;;;;5092641;28;20733;-15
2022/06/22 06:29:00;;;;;;;4.68;3.22;;;;;;;;;;5079784;28;20235;-15
2022/06/22 06:31:30;;;;;;;8.25;3.20;;;;;;;;;;5067436;28;20229;-15
2022/06/22 06:33:59;;;;;;;5.32;3.65;;;;;;;;;;5072933;28;20245;-15
2022/06/22 06:36:27;;;;;;;4.93;3.22;;;;;;;;;;5074776;28;20268;-15
2022/06/22 06:38:56;;;;;;;5.90;3.35;;;;;;;;;;5076055;28;20280;-15
2022/06/22 06:41:25;;;;;;;6.82;3.25;;;;;;;;;;5074367;28;20237;-15
2022/06/22 06:43:53;;;;;;;7.15;3.20;;;;;;;;;;5077944;28;20227;-15
2022/06/22 06:46:21;;;;;;;5.97;3.30;;;;;;;;;;5080874;28;20229;-15
2022/06/22 06:48:50;;;;;;;4.95;3.28;;;;;;;;;;5079177;28;20228;-15
2022/06/22 06:51:19;;;;;;;5.38;3.20;;;;;;;;;;5075994;28;20244;-15
2022/06/22 06:53:47;;;;;;;5.80;3.13;;;;;;;;;;5074356;28;20233;-15
2022/06/22 06:56:15;;;;;;;5.07;2.97;;;;;;;;;;5076433;28;20226;-15
2022/06/22 06:58:43;;;;;;;6.63;3.42;;;;;;;;;;5071734;28;20233;-15
2022/06/22 07:01:13;;;;;;;4.57;3.00;;;;;;;;;;5073146;28;20304;-15
2022/06/22 07:03:40;;;;;;;6.88;3.58;;;;;;;;;;5074887;28;20228;-15
2022/06/22 07:06:08;;;;;;;6.22;2.80;;;;;;;;;;5076019;28;20240;-15
2022/06/22 07:08:37;;;;;;;6.53;3.40;;;;;;;;;;5077492;28;20236;-15
2022/06/22 07:11:10;;;;;;;9.63;3.40;;;;;;;;;;5083735;28;20676;-15
2022/06/22 07:13:39;;;;;;;6.70;3.10;;;;;;;;;;5080487;28;20331;-15
2022/06/22 07:16:07;;;;;;;6.32;3.30;;;;;;;;;;5083553;28;20221;-15
2022/06/22 07:18:35;;;;;;;10.27;3.30;;;;;;;;;;5079726;28;20290;-15
2022/06/22 07:21:04;;;;;;;7.20;3.60;;;;;;;;;;5079398;28;20233;-15
2022/06/22 07:23:33;;;;;;;8.57;3.60;;;;;;;;;;5080530;28;20257;-15
2022/06/22 07:26:03;;;;;;;6.22;3.25;;;;;;;;;;5071436;28;20237;-15
2022/06/22 07:28:32;;;;;;;7.05;3.30;;;;;;;;;;5078367;28;20234;-15
2022/06/22 07:31:00;;;;;;;7.20;3.67;;;;;;;;;;5078794;28;20227;-15
2022/06/22 07:33:29;;;;;;;5.35;3.22;;;;;;;;;;5081086;28;20291;-15
2022/06/22 07:35:57;;;;;;;5.82;3.20;;;;;;;;;;5065400;28;20221;-15
2022/06/22 07:38:26;;;;;;;7.78;3.17;;;;;;;;;;5070750;28;20233;-15
2022/06/22 07:43:40;;;;;;;8.60;3.00;;;;;;;;;;5074810;28;20228;-15
2022/06/22 07:46:07;;;;;;;6.55;3.90;;;;;;;;;;5076057;28;20692;-15
2022/06/22 07:48:36;;;;;;;7.55;2.90;;;;;;;;;;5077256;28;21055;-15
2022/06/22 07:51:05;;;;;;;6.97;3.00;;;;;;;;;;5094045;28;20239;-15
2022/06/22 07:53:34;;;;;;;10.20;2.35;;;;;;;;;;5075769;28;20244;-14
2022/06/22 07:56:02;;;;;;;11.68;2.28;;;;;;;;;;5072329;28;20236;-15
2022/06/22 07:58:31;;;;;;;4.68;2.17;;;;;;;;;;5074861;28;20715;-15
2022/06/22 08:01:00;;;;;;;13.52;2.40;;;;;;;;;;5077666;28;20232;-14
2022/06/22 08:03:29;;;;;;;7.82;2.30;;;;;;;;;;5080193;28;20233;-15
2022/06/22 08:05:57;;;;;;;4.00;2.08;;;;;;;;;;5077233;28;21155;-15
2022/06/22 08:08:26;;;;;;;8.07;2.03;;;;;;;;;;5079128;28;20225;-15
2022/06/22 08:10:54;;;;;;;3.95;1.90;;;;;;;;;;5078041;28;20237;-15
2022/06/22 08:13:22;;;;;;;4.53;2.00;;;;;;;;;;5079853;28;20237;-15
2022/06/22 08:15:51;;;;;;;7.88;2.05;;;;;;;;;;5076706;28;20259;-15
2022/06/22 08:18:20;;;;;;;6.80;2.10;;;;;;;;;;5080306;28;21054;-15
2022/06/22 08:20:48;;;;;;;10.88;2.25;;;;;;;;;;5074937;28;20237;-15
2022/06/22 08:23:17;;;;;;;9.23;2.20;;;;;;;;;;5082416;28;20246;-15
2022/06/22 08:26:01;;;;;;;5.63;2.00;;;;;;;;;;5080574;28;20417;-14
2022/06/22 08:28:29;;;;;;;5.15;1.85;;;;;;;;;;5069860;28;21240;-15
2022/06/22 08:30:57;;;;;;;2.70;1.73;;;;;;;;;;5073510;28;20229;-14
2022/06/22 08:33:26;;;;;;;5.78;1.77;;;;;;;;;;5070058;28;20250;-15
2022/06/22 08:35:55;;;;;;;5.03;2.00;;;;;;;;;;5078777;28;20429;-16
2022/06/22 08:38:25;;;;;;;9.68;2.03;;;;;;;;;;5060629;28;20347;-15
2022/06/22 08:40:54;;;;;;;8.35;1.92;;;;;;;;;;5069340;28;20233;-16
2022/06/22 08:43:24;;;;;;;12.68;2.05;;;;;;;;;;5058974;28;20268;-15
2022/06/22 08:45:57;;;;;;;2.20;1.77;;;;;;;;;;5071881;28;21265;-15
2022/06/22 08:48:29;;;;;;;4.13;1.98;;;;;;;;;;5057885;28;20315;-15
2022/06/22 08:51:07;;;;;;;5.50;1.80;;;;;;;;;;5076378;28;20711;-15
2022/06/22 08:53:38;;;;;;;4.60;1.80;;;;;;;;;;5066904;28;20241;-15
2022/06/22 08:56:12;;;;;;;2.88;1.63;;;;;;;;;;5067281;28;20697;-15
2022/06/22 08:58:45;;;;;;;4.00;1.83;;;;;;;;;;5063689;28;20233;-15
2022/06/22 09:01:15;;;;;;;5.80;1.95;;;;;;;;;;5072572;28;20236;-15
2022/06/22 09:03:49;;;;;;;4.75;1.90;;;;;;;;;;5068494;28;20230;-15
2022/06/22 09:06:21;;;;;;;3.80;2.05;;;;;;;;;;5067541;28;20280;-15
2022/06/22 09:09:07;;;;;;;4.38;1.67;;;;;;;;;;5059126;28;20236;-15
2022/06/22 09:11:36;;;;;;;3.03;1.50;;;;;;;;;;5074776;28;20234;-15
2022/06/22 09:14:10;;;;;;;4.13;1.30;;;;;;;;;;5066278;28;20246;-15
2022/06/22 09:16:40;;;;;;;6.28;1.80;;;;;;;;;;5072199;28;20225;-15
2022/06/22 09:19:23;;;;;;;2.80;1.73;;;;;;;;;;5073953;28;20245;-15
2022/06/22 09:21:56;;;;;;;4.32;1.52;;;;;;;;;;5071536;28;20442;-15
2022/06/22 09:24:28;;;;;;;7.30;1.70;;;;;;;;;;5069420;28;21047;-15
2022/06/22 09:26:58;;;;;;;9.50;1.42;;;;;;;;;;5072306;28;20236;-15
2022/06/22 09:29:36;;;;;;;4.38;1.40;;;;;;;;;;5072452;28;20229;-15
2022/06/22 09:32:15;;;;;;;4.57;1.33;;;;;;;;;;5071603;28;20221;-15
2022/06/22 09:34:47;;;;;;;5.35;1.52;;;;;;;;;;5071185;28;20237;-15
2022/06/22 09:37:20;;;;;;;5.85;1.50;;;;;;;;;;5071279;28;20248;-15
2022/06/22 09:39:54;;;;;;;5.30;1.40;;;;;;;;;;5071799;28;20939;-15
2022/06/22 09:42:34;;;;;;;1.85;1.17;;;;;;;;;;5071969;28;20233;-15
2022/06/22 09:45:07;;;;;;;3.25;1.40;;;;;;;;;;5072041;28;20998;-15
2022/06/22 09:47:37;;;;;;;3.15;1.60;;;;;;;;;;5061520;28;20233;-15
2022/06/22 09:50:28;;;;;;;2.13;1.30;;;;;;;;;;5085959;28;20240;-15
2022/06/22 09:53:03;;;;;;;2.67;1.25;;;;;;;;;;5092079;28;20260;-15
2022/06/22 09:58:34;;;;;;;2.67;1.40;;;;;;;;;;5081332;28;20229;-15
2022/06/22 10:01:03;;;;;;;3.03;1.50;;;;;;;;;;5064214;28;20221;-15
2022/06/22 10:03:39;;;;;;;3.20;1.20;;;;;;;;;;5092112;28;20361;-15
2022/06/22 10:06:12;;;;;;;1.33;1.00;;;;;;;;;;5069306;28;20235;-15
2022/06/22 10:08:44;;;;;;;2.10;1.20;;;;;;;;;;5088057;28;20230;-15
2022/06/22 10:11:16;;;;;;;2.92;1.35;;;;;;;;;;5091932;28;20229;-15
2022/06/22 10:13:54;;;;;;;1.73;1.20;;;;;;;;;;5091700;28;20801;-15
2022/06/22 10:16:34;;;;;;;1.83;1.30;;;;;;;;;;5088820;28;20239;-15
2022/06/22 10:19:06;;;;;;;2.90;1.40;;;;;;;;;;5091506;28;20673;-15
2022/06/22 10:21:37;;;;;;;5.70;1.52;;;;;;;;;;5079449;28;20237;-15
2022/06/22 10:24:15;;;;;;;2.85;1.50;;;;;;;;;;5090493;28;20237;-15
2022/06/22 10:26:44;;;;;;;5.00;1.65;;;;;;;;;;5069713;28;20234;-15
2022/06/22 10:29:17;;;;;;;4.75;1.48;;;;;;;;;;5091479;28;20227;-15
2022/06/22 10:31:49;;;;;;;4.55;1.45;;;;;;;;;;5076817;28;20965;-15
2022/06/22 10:34:19;;;;;;;3.22;1.60;;;;;;;;;;5086638;28;20229;-15
2022/06/22 10:36:57;;;;;;;4.55;1.73;;;;;;;;;;5091504;28;20243;-15
2022/06/22 10:39:32;;;;;;;5.18;1.88;;;;;;;;;;5091101;28;20232;-15
2022/06/22 10:45:11;;;;;;;5.32;1.45;;;;;;;;;;5089129;28;20232;-15
2022/06/22 10:47:47;;;;;;;2.78;1.30;;;;;;;;;;5078079;28;20231;-15
2022/06/22 10:50:19;;;;;;;2.08;1.23;;;;;;;;;;5069701;28;20220;-15
2022/06/22 10:53:12;;;;;;;3.25;1.13;;;;;;;;;;5082960;28;20230;-15
2022/06/22 10:55:43;;;;;;;4.55;1.50;;;;;;;;;;5090340;28;20228;-15
2022/06/22 10:58:17;;;;;;;4.75;1.40;;;;;;;;;;5082921;28;20238;-15
2022/06/22 11:00:47;;;;;;;3.47;1.20;;;;;;;;;;5090191;28;20232;-15
2022/06/22 11:03:26;;;;;;;3.28;1.17;;;;;;;;;;5088808;28;20228;-15
2022/06/22 11:05:55;;;;;;;2.05;1.30;;;;;;;;;;5070517;28;20263;-15
2022/06/22 11:08:26;;;;;;;8.40;1.40;;;;;;;;;;5075725;28;20244;-15
2022/06/22 11:11:09;;;;;;;5.43;1.60;;;;;;;;;;5070153;28;20217;-15
2022/06/22 11:13:53;;;;;;;2.28;1.30;;;;;;;;;;5073850;28;20237;-15
2022/06/22 11:16:26;;;;;;;3.90;1.23;;;;;;;;;;5072057;28;20237;-14
2022/06/22 11:18:58;;;;;;;5.55;1.52;;;;;;;;;;5084915;28;20240;-14
2022/06/22 11:21:32;;;;;;;7.90;1.60;;;;;;;;;;5069745;28;20244;-14
2022/06/22 11:24:12;;;;;;;4.82;1.75;;;;;;;;;;5071609;28;20746;-14
2022/06/22 11:32:25;;;;;;;8.82;1.75;;;;;;;;;;5071840;28;20229;-14
2022/06/22 11:34:57;;;;;;;4.32;1.48;;;;;;;;;;5076260;28;20396;-14
2022/06/22 11:37:26;;;;;;;5.40;1.25;;;;;;;;;;5075829;28;20229;-14
2022/06/22 11:40:26;;;;;;;7.60;1.25;;;;;;;;;;5073675;28;20225;-14
2022/06/22 11:42:57;;;;;;;4.32;1.38;;;;;;;;;;5078652;28;20240;-14
2022/06/22 11:48:24;;;;;;;4.95;1.73;;;;;;;;;;5068846;28;20671;-14
2022/06/22 11:50:56;;;;;;;6.47;1.60;;;;;;;;;;5065561;28;20239;-14
2022/06/22 11:53:27;;;;;;;11.85;1.73;;;;;;;;;;5065674;28;20352;-14
2022/06/22 11:55:56;;;;;;;7.65;1.50;;;;;;;;;;5065612;28;20248;-14
2022/06/22 11:58:32;;;;;;;9.02;1.65;;;;;;;;;;5067990;28;20233;-14
2022/06/22 12:01:03;;;;;;;9.93;1.88;;;;;;;;;;5070072;28;20226;-14
2022/06/22 12:03:57;;;;;;;8.48;1.50;;;;;;;;;;5069995;28;20235;-14
2022/06/22 12:06:28;;;;;;;6.60;1.42;;;;;;;;;;5051409;28;20320;-14
2022/06/22 12:09:02;;;;;;;5.55;1.40;;;;;;;;;;5069851;28;20239;-14
2022/06/22 12:11:33;;;;;;;9.05;1.63;;;;;;;;;;5069279;28;20651;-14
2022/06/22 12:16:53;;;;;;;8.55;1.48;;;;;;;;;;5068978;28;20428;-14
2022/06/22 12:19:23;;;;;;;8.05;1.95;;;;;;;;;;5069763;28;20589;-14
2022/06/22 12:22:12;;;;;;;3.47;1.10;;;;;;;;;;5069030;28;20263;-14
2022/06/22 12:24:44;;;;;;;4.93;1.40;;;;;;;;;;5063371;28;20240;-14
2022/06/22 12:27:14;;;;;;;2.40;1.20;;;;;;;;;;5069898;28;20726;-14
2022/06/22 12:29:59;;;;;;;3.72;1.40;;;;;;;;;;5070097;28;20252;-14
2022/06/22 12:32:28;;;;;;;4.40;1.40;;;;;;;;;;5072458;28;20321;-14
2022/06/22 12:35:04;;;;;;;3.00;1.45;;;;;;;;;;5072853;28;20226;-14
2022/06/22 12:37:32;;;;;;;4.38;1.20;;;;;;;;;;5072821;28;20237;-14
2022/06/22 12:40:01;;;;;;;2.45;1.30;;;;;;;;;;5072908;28;20299;-14
2022/06/22 12:42:38;;;;;;;3.25;1.40;;;;;;;;;;5071712;28;20320;-14
2022/06/22 12:45:18;;;;;;;4.07;1.10;;;;;;;;;;5072729;28;20707;-14
2022/06/22 12:47:53;;;;;;;2.25;1.10;;;;;;;;;;5072728;28;20311;-14
2022/06/22 12:50:27;;;;;;;5.88;1.30;;;;;;;;;;5073138;28;20240;-14
2022/06/22 12:52:55;;;;;;;3.30;1.27;;;;;;;;;;5072571;28;20291;-14
2022/06/22 12:55:25;;;;;;;3.30;1.73;;;;;;;;;;5071870;28;20229;-14
2022/06/22 12:57:54;;;;;;;2.15;1.20;;;;;;;;;;5072365;28;20238;-14
2022/06/22 13:00:22;;;;;;;2.38;0.90;;;;;;;;;;5072242;28;20234;-14
2022/06/22 13:02:50;;;;;;;4.80;1.15;;;;;;;;;;5072539;28;20277;-14
2022/06/22 13:05:19;;;;;;;2.50;1.02;;;;;;;;;;5071928;28;20237;-14
2022/06/22 13:07:47;;;;;;;1.40;1.10;;;;;;;;;;5072083;28;20229;-14
2022/06/22 13:10:16;;;;;;;2.40;1.10;;;;;;;;;;5072753;28;20234;-14
2022/06/22 13:12:44;;;;;;;3.30;1.02;;;;;;;;;;5072395;28;20607;-14
2022/06/22 13:15:13;;;;;;;4.03;1.10;;;;;;;;;;5071867;28;21116;-15
2022/06/22 13:17:42;;;;;;;1.30;1.20;;;;;;;;;;5072019;28;20751;-14
2022/06/22 13:20:27;;;;;;;3.75;1.40;;;;;;;;;;5072341;28;20995;-14
2022/06/22 13:22:57;;;;;;;1.45;1.13;;;;;;;;;;5071671;28;20291;-14
2022/06/22 13:25:26;;;;;;;2.50;1.00;;;;;;;;;;5072003;28;20709;-14
2022/06/22 13:27:55;;;;;;;4.32;1.50;;;;;;;;;;5071970;28;20229;-14
2022/06/22 13:30:24;;;;;;;2.97;1.13;;;;;;;;;;5072125;28;20677;-14
2022/06/22 13:32:54;;;;;;;2.10;1.08;;;;;;;;;;5072131;28;20225;-14
2022/06/22 13:35:23;;;;;;;1.88;1.20;;;;;;;;;;5071846;28;20226;-14
2022/06/22 13:38:31;;;;;;;5.35;0.90;;;;;;;;;;5072370;28;20229;-14
2022/06/22 13:41:02;;;;;;;3.20;1.00;;;;;;;;;;5037566;28;20240;-14
2022/06/22 13:43:34;;;;;;;3.60;1.30;;;;;;;;;;5071999;28;20625;-14
2022/06/22 13:46:10;;;;;;;3.53;1.23;;;;;;;;;;5071749;28;20269;-14
2022/06/22 13:48:40;;;;;;;2.40;1.27;;;;;;;;;;5071521;28;20225;-14
2022/06/22 13:51:29;;;;;;;3.20;1.33;;;;;;;;;;5071490;28;20972;-14
2022/06/22 13:54:12;;;;;;;5.10;0.95;;;;;;;;;;5071692;28;20233;-14
2022/06/22 13:56:43;;;;;;;2.95;1.00;;;;;;;;;;5059956;28;20241;-14
2022/06/22 13:59:14;;;;;;;1.95;1.20;;;;;;;;;;5071220;28;20244;-14
2022/06/22 14:01:42;;;;;;;1.35;0.90;;;;;;;;;;5071139;28;20264;-14
2022/06/22 14:04:11;;;;;;;1.58;1.23;;;;;;;;;;5071285;28;20230;-14
2022/06/22 14:06:49;;;;;;;2.88;0.93;;;;;;;;;;5071299;28;20235;-14
2022/06/22 14:09:18;;;;;;;2.55;1.02;;;;;;;;;;5071364;28;21234;-14
2022/06/22 14:11:49;;;;;;;2.90;1.40;;;;;;;;;;5070984;28;20230;-14
2022/06/22 14:14:20;;;;;;;3.20;1.00;;;;;;;;;;5071369;28;20265;-14
2022/06/22 14:16:48;;;;;;;2.20;1.10;;;;;;;;;;5065380;28;20324;-14
2022/06/22 14:19:17;;;;;;;1.70;0.85;;;;;;;;;;5071501;28;20234;-14
2022/06/22 14:21:46;;;;;;;1.98;1.23;;;;;;;;;;5074516;28;20992;-14
2022/06/22 14:24:16;;;;;;;2.28;1.10;;;;;;;;;;5079585;28;20279;-14
2022/06/22 14:26:48;;;;;;;2.30;1.00;;;;;;;;;;5070873;28;20234;-14
2022/06/22 14:29:18;;;;;;;1.95;1.00;;;;;;;;;;5070937;28;20309;-14
2022/06/22 14:31:49;;;;;;;2.15;0.98;;;;;;;;;;5081798;28;20225;-14
2022/06/22 14:34:22;;;;;;;2.67;1.30;;;;;;;;;;5070668;28;20613;-14
2022/06/22 14:37:00;;;;;;;2.88;0.90;;;;;;;;;;5070822;28;20306;-14
2022/06/22 14:39:30;;;;;;;1.75;0.90;;;;;;;;;;5070484;28;20229;-14
2022/06/22 14:42:01;;;;;;;1.35;0.93;;;;;;;;;;5071347;28;20696;-14
2022/06/22 14:44:35;;;;;;;1.02;0.77;;;;;;;;;;5073830;28;20703;-14
2022/06/22 14:47:06;;;;;;;2.25;1.20;;;;;;;;;;5083464;28;21063;-14
2022/06/22 14:49:46;;;;;;;1.30;0.88;;;;;;;;;;5074749;28;20252;-14
2022/06/22 14:52:17;;;;;;;3.13;1.30;;;;;;;;;;5075663;28;20222;-14
2022/06/22 14:54:47;;;;;;;3.63;1.40;;;;;;;;;;5069621;28;20664;-14
2022/06/22 14:57:17;;;;;;;2.38;1.20;;;;;;;;;;5081964;28;20239;-14
2022/06/22 14:59:59;;;;;;;3.28;1.10;;;;;;;;;;5077556;28;20229;-14
2022/06/22 15:02:27;;;;;;;1.70;1.02;;;;;;;;;;5070197;28;20287;-14
2022/06/22 15:04:56;;;;;;;2.65;1.20;;;;;;;;;;5076389;28;20237;-16
2022/06/22 15:07:26;;;;;;;2.72;1.00;;;;;;;;;;5077116;28;20237;-13
2022/06/22 15:09:54;;;;;;;4.20;1.10;;;;;;;;;;5069915;28;20707;-16
2022/06/22 15:15:20;;;;;;;4.15;1.20;;;;;;;;;;5070220;28;20233;-13
2022/06/22 15:17:50;;;;;;;2.95;0.90;;;;;;;;;;5079989;28;20236;-16
2022/06/22 15:20:20;;;;;;;2.72;1.20;;;;;;;;;;5081262;28;20233;-15
2022/06/22 15:22:48;;;;;;;2.88;1.20;;;;;;;;;;5069376;28;20247;-15
2022/06/22 15:25:38;;;;;;;2.20;1.30;;;;;;;;;;5068169;28;20236;-15
2022/06/22 15:28:13;;;;;;;6.18;1.50;;;;;;;;;;5071615;28;20230;-15
2022/06/22 15:30:43;;;;;;;2.97;1.20;;;;;;;;;;5071791;28;20225;-14